Terminal Aerodrome Forecast
Issued by NWS

Home | Current Version | Previous Version | Text Only | Print | Product List | Glossary Off
Versions: 1 2 3 4 5 6 7 8 9 10 11 12 13 14 15 16 17 18 19 20 21 22 23 24 25

000
FTUS43 KGRB 120827 AAA
TAFRHI
TAF AMD
KRHI 120827Z 1208/1306 31010G18KT P6SM SCT025 OVC035
      TEMPO 1208/1210 -SHSN BKN025
     FM121000 32009G16KT P6SM -SHSN BKN035
     FM121400 32009G17KT P6SM -SHSN BKN016
     FM121800 32011G16KT P6SM -SHSN BKN024
     FM122000 32010G15KT P6SM SCT025 SCT035
     FM122200 31004KT P6SM SCT040=

USA.gov is the U.S. government's official web portal to all federal, state and local government web resources and services.